createdAt,value
2022-12-27T00:00:27.309Z,8.20
2022-12-27T00:00:57.721Z,8.45
2022-12-27T00:01:28.808Z,9.01
2022-12-27T00:01:59.224Z,9.01
2022-12-27T00:02:31.840Z,9.01
2022-12-27T00:03:01.908Z,9.01
2022-12-27T00:03:32.722Z,9.49
2022-12-27T00:04:03.140Z,9.65
2022-12-27T00:04:34.932Z,9.65
2022-12-27T00:05:05.988Z,9.65
2022-12-27T00:05:36.785Z,9.89
2022-12-27T00:06:07.505Z,9.65
2022-12-27T00:06:38.884Z,9.65
2022-12-27T00:07:09.045Z,9.65
2022-12-27T00:07:41.785Z,9.65
2022-12-27T00:08:11.029Z,9.65
2022-12-27T00:08:43.829Z,9.89
2022-12-27T00:09:13.114Z,10.30
2022-12-27T00:09:44.704Z,10.46
2022-12-27T00:10:22.425Z,10.62
2022-12-27T00:10:46.729Z,10.78
2022-12-27T00:11:17.106Z,10.78
2022-12-27T00:11:48.765Z,10.78
2022-12-27T00:12:19.086Z,10.78
2022-12-27T00:12:51.637Z,10.78
2022-12-27T00:13:21.085Z,10.78
2022-12-27T00:13:52.788Z,10.94
2022-12-27T00:14:23.065Z,10.94
2022-12-27T00:14:55.704Z,10.94
2022-12-27T00:15:25.227Z,10.94
2022-12-27T00:15:56.897Z,10.62
2022-12-27T00:16:27.116Z,10.62
2022-12-27T00:16:58.772Z,10.62
2022-12-27T00:17:29.059Z,10.46
2022-12-27T00:18:02.837Z,10.06
2022-12-27T00:18:31.127Z,9.65
2022-12-27T00:19:02.709Z,9.65
2022-12-27T00:19:33.651Z,9.65
2022-12-27T00:20:10.750Z,9.49
2022-12-27T00:20:38.437Z,9.49
2022-12-27T00:21:06.806Z,9.49
2022-12-27T00:21:40.808Z,9.49
2022-12-27T00:22:09.442Z,9.49
2022-12-27T00:22:39.071Z,9.65
2022-12-27T00:23:11.765Z,9.65
2022-12-27T00:23:41.044Z,9.65
2022-12-27T00:24:12.904Z,9.65
2022-12-27T00:24:43.262Z,9.65
2022-12-27T00:25:15.225Z,10.38
2022-12-27T00:25:45.051Z,11.34
2022-12-27T00:26:16.999Z,11.58
2022-12-27T00:26:47.085Z,12.31
2022-12-27T00:27:18.694Z,13.03
2022-12-27T00:27:49.207Z,13.19
2022-12-27T00:28:21.656Z,13.68
2022-12-27T00:28:51.057Z,14.00
2022-12-27T00:29:22.716Z,14.56
2022-12-27T00:29:53.076Z,15.29
2022-12-27T00:30:25.623Z,15.85
2022-12-27T00:30:55.433Z,16.74
2022-12-27T00:31:26.662Z,16.74
2022-12-27T00:31:57.533Z,15.85
2022-12-27T00:32:28.676Z,15.85
2022-12-27T00:32:59.601Z,15.85
2022-12-27T00:33:31.674Z,15.13
2022-12-27T00:34:01.314Z,14.96
2022-12-27T00:34:32.883Z,14.96
2022-12-27T00:35:03.546Z,15.68
2022-12-27T00:35:35.555Z,14.96
2022-12-27T00:36:05.151Z,14.40
2022-12-27T00:36:36.773Z,14.40
2022-12-27T00:37:07.175Z,14.96
2022-12-27T00:37:38.813Z,14.96
2022-12-27T00:38:09.054Z,14.96
2022-12-27T00:38:41.791Z,14.96
2022-12-27T00:39:11.150Z,15.12
2022-12-27T00:39:42.986Z,15.12
2022-12-27T00:40:13.603Z,14.96
2022-12-27T00:40:47.357Z,14.96
2022-12-27T00:41:18.200Z,14.96
2022-12-27T00:41:46.763Z,15.12
2022-12-27T00:42:17.087Z,15.68
2022-12-27T00:42:48.779Z,15.68
2022-12-27T00:43:19.109Z,15.68
2022-12-27T00:43:51.696Z,15.68
2022-12-27T00:44:21.088Z,16.25
2022-12-27T00:44:52.674Z,16.57
2022-12-27T00:45:24.045Z,16.25
2022-12-27T00:45:54.913Z,16.57
2022-12-27T00:46:25.718Z,17.06
2022-12-27T00:46:56.638Z,17.46
2022-12-27T00:47:27.100Z,17.86
2022-12-27T00:47:58.791Z,17.86
2022-12-27T00:48:29.144Z,17.86
2022-12-27T00:49:01.894Z,17.30
2022-12-27T00:49:31.296Z,17.30
2022-12-27T00:50:03.121Z,17.30
2022-12-27T00:50:33.071Z,17.30
2022-12-27T00:51:05.304Z,16.17
2022-12-27T00:51:35.372Z,15.29
2022-12-27T00:52:06.767Z,14.72
2022-12-27T00:52:37.047Z,14.00
2022-12-27T00:53:08.837Z,13.35
2022-12-27T00:53:39.082Z,12.95
2022-12-27T00:54:11.650Z,12.95
2022-12-27T00:54:41.100Z,12.07
2022-12-27T00:55:13.227Z,11.90
2022-12-27T00:55:43.284Z,11.50
2022-12-27T00:56:14.706Z,11.10
2022-12-27T00:56:45.108Z,11.10
2022-12-27T00:57:16.907Z,11.10
2022-12-27T00:57:47.059Z,11.10
2022-12-27T00:58:18.114Z,11.10
2022-12-27T00:58:49.163Z,11.50
2022-12-27T00:59:22.185Z,11.50
2022-12-27T00:59:51.617Z,11.10
2022-12-27T01:00:24.055Z,11.10
2022-12-27T01:00:57.732Z,11.10
2022-12-27T01:01:24.847Z,11.10
2022-12-27T01:01:55.708Z,11.10
2022-12-27T01:02:27.103Z,11.10
2022-12-27T01:02:57.077Z,11.10
2022-12-27T01:03:28.723Z,11.10
2022-12-27T01:03:59.278Z,11.10
2022-12-27T01:04:31.798Z,11.10
2022-12-27T01:05:02.071Z,11.10
2022-12-27T01:05:32.893Z,10.78
2022-12-27T01:06:03.345Z,10.78
2022-12-27T01:06:35.142Z,10.78
2022-12-27T01:07:05.146Z,10.46
2022-12-27T01:07:36.740Z,10.06
2022-12-27T01:08:07.558Z,9.65
2022-12-27T01:08:38.695Z,9.65
2022-12-27T01:09:09.075Z,9.65
2022-12-27T01:09:41.631Z,9.65
2022-12-27T01:10:11.491Z,9.49
2022-12-27T01:10:42.918Z,9.17
2022-12-27T01:11:13.319Z,9.01
2022-12-27T01:11:44.652Z,9.17
2022-12-27T01:12:18.397Z,9.33
2022-12-27T01:12:46.723Z,9.33
2022-12-27T01:13:17.735Z,9.33
2022-12-27T01:13:48.771Z,9.33
2022-12-27T01:14:19.136Z,9.33
2022-12-27T01:14:51.740Z,9.33
2022-12-27T01:15:21.898Z,9.33
2022-12-27T01:15:53.312Z,9.33
2022-12-27T01:16:23.193Z,9.33
2022-12-27T01:16:54.698Z,8.61
2022-12-27T01:17:25.146Z,9.33
2022-12-27T01:17:56.662Z,9.33
2022-12-27T01:18:27.103Z,9.33
2022-12-27T01:18:58.695Z,8.61
2022-12-27T01:19:29.067Z,8.29
2022-12-27T01:20:02.198Z,8.29
2022-12-27T01:20:39.193Z,8.69
2022-12-27T01:21:02.806Z,9.01
2022-12-27T01:21:33.119Z,9.33
2022-12-27T01:22:04.796Z,9.01
2022-12-27T01:22:35.355Z,9.01
2022-12-27T01:23:06.773Z,8.69
2022-12-27T01:23:37.093Z,9.01
2022-12-27T01:24:08.620Z,9.01
2022-12-27T01:24:39.215Z,9.01
2022-12-27T01:25:12.767Z,8.69
2022-12-27T01:25:41.058Z,8.69
2022-12-27T01:26:12.967Z,8.69
2022-12-27T01:26:43.865Z,9.01
2022-12-27T01:27:14.697Z,9.49
2022-12-27T01:27:45.058Z,9.49
2022-12-27T01:28:16.843Z,10.06
2022-12-27T01:28:47.162Z,10.06
2022-12-27T01:29:19.423Z,10.06
2022-12-27T01:29:49.043Z,10.06
2022-12-27T01:30:22.902Z,10.62
2022-12-27T01:30:51.166Z,10.62
2022-12-27T01:31:22.853Z,10.06
2022-12-27T01:31:53.117Z,10.22
2022-12-27T01:32:24.643Z,10.78
2022-12-27T01:32:55.443Z,10.22
2022-12-27T01:33:26.844Z,10.22
2022-12-27T01:33:57.134Z,9.49
2022-12-27T01:34:28.665Z,9.49
2022-12-27T01:34:59.144Z,9.01
2022-12-27T01:35:32.086Z,9.49
2022-12-27T01:36:01.513Z,9.89
2022-12-27T01:36:32.809Z,9.89
2022-12-27T01:37:03.157Z,10.46
2022-12-27T01:37:34.840Z,10.46
2022-12-27T01:38:05.096Z,9.89
2022-12-27T01:38:36.667Z,9.89
2022-12-27T01:39:07.077Z,10.46
2022-12-27T01:39:38.824Z,10.94
2022-12-27T01:40:10.041Z,10.94
2022-12-27T01:40:42.199Z,10.46
2022-12-27T01:41:11.061Z,10.94
2022-12-27T01:41:42.668Z,10.94
2022-12-27T01:42:13.207Z,10.94
2022-12-27T01:42:45.299Z,10.94
2022-12-27T01:43:17.244Z,11.50
2022-12-27T01:43:47.057Z,12.07
2022-12-27T01:44:17.492Z,12.39
2022-12-27T01:44:48.653Z,12.79
2022-12-27T01:45:20.364Z,13.03
2022-12-27T01:45:51.789Z,13.03
2022-12-27T01:46:21.049Z,13.03
2022-12-27T01:46:52.753Z,13.03
2022-12-27T01:47:23.193Z,13.03
2022-12-27T01:47:54.744Z,13.92
2022-12-27T01:48:25.099Z,14.24
2022-12-27T01:48:56.657Z,14.24
2022-12-27T01:49:27.100Z,14.24
2022-12-27T01:49:58.756Z,14.24
2022-12-27T01:50:29.621Z,14.80
2022-12-27T01:51:01.705Z,16.01
2022-12-27T01:51:31.080Z,16.01
2022-12-27T01:52:02.783Z,16.01
2022-12-27T01:52:35.025Z,16.01
2022-12-27T01:53:04.730Z,15.13
2022-12-27T01:53:35.843Z,15.13
2022-12-27T01:54:06.679Z,15.45
2022-12-27T01:54:37.046Z,15.45
2022-12-27T01:55:09.014Z,15.45
2022-12-27T01:55:39.076Z,15.13
2022-12-27T01:56:11.877Z,15.13
2022-12-27T01:56:41.097Z,15.13
2022-12-27T01:57:13.081Z,14.80
2022-12-27T01:57:43.147Z,14.56
2022-12-27T01:58:14.183Z,14.16
2022-12-27T01:58:45.379Z,14.16
2022-12-27T01:59:16.775Z,14.56
2022-12-27T01:59:47.139Z,14.56
2022-12-27T02:00:20.837Z,14.56
2022-12-27T02:00:52.910Z,14.16
2022-12-27T02:01:21.859Z,13.68
2022-12-27T02:01:51.113Z,13.68
2022-12-27T02:02:22.896Z,12.95
2022-12-27T02:02:53.147Z,12.95
2022-12-27T02:03:24.804Z,12.23
2022-12-27T02:03:55.399Z,11.74
2022-12-27T02:04:26.756Z,11.74
2022-12-27T02:04:57.938Z,11.58
2022-12-27T02:05:29.061Z,11.58
2022-12-27T02:05:59.096Z,11.58
2022-12-27T02:06:32.220Z,11.58
2022-12-27T02:07:02.018Z,11.58
2022-12-27T02:07:32.786Z,11.58
2022-12-27T02:08:03.196Z,11.74
2022-12-27T02:08:34.703Z,11.74
2022-12-27T02:09:05.098Z,11.74
2022-12-27T02:09:37.259Z,11.74
2022-12-27T02:10:07.536Z,11.58
2022-12-27T02:10:38.788Z,11.58
2022-12-27T02:11:09.097Z,11.74
2022-12-27T02:11:41.638Z,11.90
2022-12-27T02:12:11.097Z,11.90
2022-12-27T02:12:43.171Z,12.07
2022-12-27T02:13:13.095Z,12.23
2022-12-27T02:13:44.946Z,12.63
2022-12-27T02:14:17.187Z,13.35
2022-12-27T02:14:46.783Z,13.35
2022-12-27T02:15:17.868Z,14.24
2022-12-27T02:15:48.840Z,14.24
2022-12-27T02:16:19.188Z,14.80
2022-12-27T02:16:51.693Z,14.24
2022-12-27T02:17:21.096Z,13.67
2022-12-27T02:17:52.695Z,13.67
2022-12-27T02:18:23.112Z,14.24
2022-12-27T02:18:54.666Z,15.29
2022-12-27T02:19:25.064Z,15.61
2022-12-27T02:19:56.643Z,15.61
2022-12-27T02:20:39.430Z,16.17
2022-12-27T02:20:59.197Z,17.30
2022-12-27T02:21:29.069Z,17.62
2022-12-27T02:22:01.642Z,17.62
2022-12-27T02:22:31.118Z,18.02
2022-12-27T02:23:03.527Z,17.62
2022-12-27T02:23:37.882Z,17.22
2022-12-27T02:24:04.716Z,16.74
2022-12-27T02:24:35.332Z,16.74
2022-12-27T02:25:07.142Z,17.22
2022-12-27T02:25:37.030Z,17.06
2022-12-27T02:26:08.781Z,17.22
2022-12-27T02:26:39.042Z,17.22
2022-12-27T02:27:11.957Z,17.22
2022-12-27T02:27:41.072Z,17.62
2022-12-27T02:28:12.818Z,17.62
2022-12-27T02:28:43.178Z,17.22
2022-12-27T02:29:14.756Z,17.22
2022-12-27T02:29:45.092Z,17.22
2022-12-27T02:30:17.963Z,17.06
2022-12-27T02:30:47.198Z,16.89
2022-12-27T02:31:18.665Z,16.89
2022-12-27T02:31:49.050Z,16.57
2022-12-27T02:32:22.394Z,16.57
2022-12-27T02:32:51.074Z,16.01
2022-12-27T02:33:22.733Z,16.01
2022-12-27T02:33:53.445Z,16.57
2022-12-27T02:34:24.680Z,16.89
2022-12-27T02:34:55.326Z,16.57
2022-12-27T02:35:27.204Z,15.85
2022-12-27T02:35:57.055Z,15.85
2022-12-27T02:36:29.757Z,15.45
2022-12-27T02:36:59.049Z,15.29
2022-12-27T02:37:31.623Z,14.96
2022-12-27T02:38:01.309Z,14.56
2022-12-27T02:38:32.653Z,14.56
2022-12-27T02:39:03.209Z,14.56
2022-12-27T02:39:34.822Z,14.96
2022-12-27T02:40:05.912Z,14.96
2022-12-27T02:40:39.037Z,14.96
2022-12-27T02:41:07.077Z,14.56
2022-12-27T02:41:38.767Z,14.56
2022-12-27T02:42:09.064Z,14.16
2022-12-27T02:42:41.640Z,14.16
2022-12-27T02:43:11.067Z,14.73
2022-12-27T02:43:42.727Z,13.84
2022-12-27T02:44:13.129Z,13.35
2022-12-27T02:44:44.711Z,13.19
2022-12-27T02:45:18.160Z,12.79
2022-12-27T02:45:46.921Z,12.79
2022-12-27T02:46:21.405Z,12.07
2022-12-27T02:46:48.728Z,12.07
2022-12-27T02:47:20.134Z,12.79
2022-12-27T02:47:51.690Z,13.51
2022-12-27T02:48:21.013Z,13.51
2022-12-27T02:48:52.624Z,14.40
2022-12-27T02:49:23.056Z,15.29
2022-12-27T02:49:55.448Z,15.29
2022-12-27T02:50:25.477Z,15.29
2022-12-27T02:50:56.753Z,14.40
2022-12-27T02:51:27.077Z,15.29
2022-12-27T02:51:58.624Z,14.24
2022-12-27T02:52:29.036Z,15.29
2022-12-27T02:53:01.787Z,15.29
2022-12-27T02:53:31.168Z,15.29
2022-12-27T02:54:03.300Z,15.61
2022-12-27T02:54:33.033Z,15.77
2022-12-27T02:55:05.968Z,16.01
2022-12-27T02:55:35.353Z,16.01
2022-12-27T02:56:06.718Z,16.01
2022-12-27T02:56:37.089Z,16.01
2022-12-27T02:57:08.655Z,16.01
2022-12-27T02:57:39.180Z,15.77
2022-12-27T02:58:11.038Z,15.77
2022-12-27T02:58:41.061Z,16.01
2022-12-27T02:59:12.896Z,16.01
2022-12-27T02:59:43.591Z,15.77
2022-12-27T03:00:17.300Z,15.77
2022-12-27T03:00:55.826Z,15.61
2022-12-27T03:01:17.135Z,15.61
2022-12-27T03:01:47.283Z,15.29
2022-12-27T03:02:18.949Z,15.61
2022-12-27T03:02:49.563Z,15.29
2022-12-27T03:03:22.682Z,15.29
2022-12-27T03:03:51.070Z,15.29
2022-12-27T03:04:22.701Z,15.29
2022-12-27T03:04:53.669Z,15.29
2022-12-27T03:05:25.170Z,15.29
2022-12-27T03:05:55.798Z,15.45
2022-12-27T03:06:26.622Z,15.45
2022-12-27T03:06:57.067Z,15.61
2022-12-27T03:07:29.045Z,15.61
2022-12-27T03:07:59.084Z,15.61
2022-12-27T03:08:31.746Z,14.89
2022-12-27T03:09:01.368Z,14.32
2022-12-27T03:09:32.625Z,14.89
2022-12-27T03:10:03.751Z,14.89
2022-12-27T03:10:34.837Z,16.01
2022-12-27T03:11:05.044Z,16.17
2022-12-27T03:11:36.698Z,16.17
2022-12-27T03:12:07.055Z,16.17
2022-12-27T03:12:38.616Z,15.61
2022-12-27T03:13:09.091Z,15.61
2022-12-27T03:13:41.672Z,15.05
2022-12-27T03:14:11.702Z,14.32
2022-12-27T03:14:42.852Z,14.32
2022-12-27T03:15:14.529Z,14.32
2022-12-27T03:15:44.984Z,14.00
2022-12-27T03:16:18.674Z,13.35
2022-12-27T03:16:47.598Z,13.35
2022-12-27T03:17:17.142Z,13.35
2022-12-27T03:17:48.624Z,13.35
2022-12-27T03:18:19.071Z,13.35
2022-12-27T03:18:51.598Z,14.00
2022-12-27T03:19:21.170Z,14.00
2022-12-27T03:19:52.706Z,14.00
2022-12-27T03:20:23.458Z,14.00
2022-12-27T03:20:55.100Z,14.00
2022-12-27T03:21:25.013Z,14.00
2022-12-27T03:21:56.722Z,14.32
2022-12-27T03:22:27.032Z,14.32
2022-12-27T03:22:58.703Z,14.56
2022-12-27T03:23:29.026Z,14.56
2022-12-27T03:24:01.803Z,14.56
2022-12-27T03:24:31.139Z,14.56
2022-12-27T03:25:03.478Z,14.56
2022-12-27T03:25:33.116Z,14.56
2022-12-27T03:26:04.793Z,15.13
2022-12-27T03:26:35.837Z,15.85
2022-12-27T03:27:06.762Z,15.29
2022-12-27T03:27:37.584Z,15.29
2022-12-27T03:28:08.773Z,15.29
2022-12-27T03:28:39.030Z,15.29
2022-12-27T03:29:11.609Z,14.96
2022-12-27T03:29:41.067Z,14.96
2022-12-27T03:30:15.257Z,14.80
2022-12-27T03:30:43.306Z,14.80
2022-12-27T03:31:14.782Z,14.24
2022-12-27T03:31:45.365Z,13.67
2022-12-27T03:32:16.918Z,13.67
2022-12-27T03:32:47.177Z,13.67
2022-12-27T03:33:18.605Z,13.67
2022-12-27T03:33:49.060Z,14.24
2022-12-27T03:34:21.816Z,14.96
2022-12-27T03:34:51.088Z,15.29
2022-12-27T03:35:23.336Z,15.29
2022-12-27T03:35:53.005Z,15.85
2022-12-27T03:36:24.644Z,15.29
2022-12-27T03:36:55.359Z,15.29
2022-12-27T03:37:26.614Z,15.13
2022-12-27T03:37:57.038Z,15.53
2022-12-27T03:38:28.864Z,14.56
2022-12-27T03:38:59.149Z,15.05
2022-12-27T03:39:31.998Z,15.05
2022-12-27T03:40:02.180Z,15.05
2022-12-27T03:40:38.967Z,15.05
2022-12-27T03:41:03.848Z,14.56
2022-12-27T03:41:34.839Z,15.29
2022-12-27T03:42:05.123Z,16.01
2022-12-27T03:42:36.868Z,16.01
2022-12-27T03:43:07.021Z,16.01
2022-12-27T03:43:38.771Z,15.29
2022-12-27T03:44:09.538Z,14.56
2022-12-27T03:44:41.787Z,14.56
2022-12-27T03:45:12.196Z,14.00
2022-12-27T03:45:42.908Z,14.00
2022-12-27T03:46:13.099Z,13.67
2022-12-27T03:46:44.754Z,13.67
2022-12-27T03:47:23.580Z,13.67
2022-12-27T03:47:47.341Z,13.67
2022-12-27T03:48:17.091Z,12.79
2022-12-27T03:48:48.773Z,11.90
2022-12-27T03:49:19.116Z,11.90
2022-12-27T03:49:51.768Z,11.90
2022-12-27T03:50:21.454Z,11.90
2022-12-27T03:50:52.629Z,12.23
2022-12-27T03:51:23.040Z,12.23
2022-12-27T03:51:54.717Z,12.23
2022-12-27T03:52:25.018Z,12.23
2022-12-27T03:52:56.713Z,12.23
2022-12-27T03:53:27.019Z,12.23
2022-12-27T03:53:58.614Z,12.79
2022-12-27T03:54:29.528Z,12.79
2022-12-27T03:55:02.461Z,12.79
2022-12-27T03:55:33.549Z,13.03
2022-12-27T03:56:02.688Z,13.03
2022-12-27T03:56:33.029Z,13.92
2022-12-27T03:57:04.708Z,15.13
2022-12-27T03:57:35.372Z,15.45
2022-12-27T03:58:06.602Z,15.45
2022-12-27T03:58:37.344Z,15.45
2022-12-27T03:59:08.340Z,15.45
2022-12-27T03:59:39.633Z,15.85
2022-12-27T04:00:12.070Z,15.85
2022-12-27T04:00:48.757Z,16.25
2022-12-27T04:01:13.361Z,16.25
2022-12-27T04:01:43.985Z,16.41
2022-12-27T04:02:14.331Z,16.25
2022-12-27T04:02:46.116Z,16.41
2022-12-27T04:03:16.553Z,16.41
2022-12-27T04:03:47.983Z,16.25
2022-12-27T04:04:18.210Z,16.41
2022-12-27T04:04:49.872Z,16.57
2022-12-27T04:05:21.575Z,16.73
2022-12-27T04:05:51.865Z,16.73
2022-12-27T04:06:22.123Z,17.30
2022-12-27T04:06:53.709Z,17.30
2022-12-27T04:07:24.065Z,18.34
2022-12-27T04:07:56.394Z,19.23
2022-12-27T04:08:26.239Z,19.23
2022-12-27T04:08:57.781Z,19.63
2022-12-27T04:09:28.081Z,19.63
2022-12-27T04:10:00.263Z,19.06
2022-12-27T04:10:31.975Z,19.63
2022-12-27T04:11:01.816Z,19.06
2022-12-27T04:11:32.341Z,19.06
2022-12-27T04:12:03.951Z,19.06
2022-12-27T04:12:34.122Z,19.63
2022-12-27T04:13:05.817Z,19.06
2022-12-27T04:13:36.093Z,19.63
2022-12-27T04:14:07.837Z,20.67
2022-12-27T04:14:38.859Z,20.67
2022-12-27T04:15:11.590Z,21.08
2022-12-27T04:15:41.200Z,21.08
2022-12-27T04:16:11.879Z,21.08
2022-12-27T04:16:42.115Z,21.08
2022-12-27T04:17:13.718Z,21.08
2022-12-27T04:17:44.055Z,20.36
2022-12-27T04:18:17.262Z,20.36
2022-12-27T04:18:46.414Z,20.36
2022-12-27T04:19:17.782Z,21.08
2022-12-27T04:19:48.127Z,21.08
2022-12-27T04:20:20.613Z,21.08
2022-12-27T04:20:51.215Z,21.08
2022-12-27T04:21:22.504Z,21.72
2022-12-27T04:21:52.123Z,21.72
2022-12-27T04:22:23.778Z,21.08
2022-12-27T04:22:54.026Z,20.60
2022-12-27T04:23:25.752Z,20.60
2022-12-27T04:23:56.302Z,20.36
2022-12-27T04:24:27.688Z,20.36
2022-12-27T04:24:58.024Z,20.36
2022-12-27T04:25:30.093Z,19.95
2022-12-27T04:26:01.242Z,19.95
2022-12-27T04:26:31.755Z,19.95
2022-12-27T04:27:02.607Z,19.79
2022-12-27T04:27:33.600Z,19.95
2022-12-27T04:28:04.224Z,19.79
2022-12-27T04:28:39.159Z,19.47
2022-12-27T04:29:06.005Z,19.79
2022-12-27T04:29:37.628Z,19.79
2022-12-27T04:30:08.984Z,19.79
2022-12-27T04:30:39.713Z,19.79
2022-12-27T04:31:11.130Z,19.79
2022-12-27T04:31:41.656Z,19.63
2022-12-27T04:32:12.378Z,19.31
2022-12-27T04:32:43.756Z,19.63
2022-12-27T04:33:14.049Z,19.31
2022-12-27T04:33:45.737Z,19.31
2022-12-27T04:34:16.020Z,19.31
2022-12-27T04:34:48.317Z,18.02
2022-12-27T04:35:18.439Z,18.18
2022-12-27T04:35:49.792Z,18.18
2022-12-27T04:36:21.009Z,17.46
2022-12-27T04:36:51.725Z,16.89
2022-12-27T04:37:22.133Z,17.46
2022-12-27T04:37:53.593Z,16.89
2022-12-27T04:38:24.091Z,17.46
2022-12-27T04:39:01.745Z,18.34
2022-12-27T04:39:26.012Z,18.34
2022-12-27T04:39:57.623Z,18.34
2022-12-27T04:40:38.879Z,19.06
2022-12-27T04:40:59.642Z,19.06
2022-12-27T04:41:31.414Z,18.34
2022-12-27T04:42:01.772Z,17.62
2022-12-27T04:42:32.084Z,17.62
2022-12-27T04:43:03.699Z,17.06
2022-12-27T04:43:34.057Z,17.06
2022-12-27T04:44:05.630Z,17.06
2022-12-27T04:44:36.016Z,17.22
2022-12-27T04:45:14.926Z,17.62
2022-12-27T04:45:38.401Z,17.22
2022-12-27T04:46:09.743Z,16.90
2022-12-27T04:46:41.075Z,16.90
2022-12-27T04:47:11.601Z,17.22
2022-12-27T04:47:42.028Z,17.22
2022-12-27T04:48:14.297Z,17.22
2022-12-27T04:48:44.042Z,16.90
2022-12-27T04:49:17.346Z,16.41
2022-12-27T04:49:46.247Z,16.25
2022-12-27T04:50:18.100Z,16.25
2022-12-27T04:50:48.070Z,16.25
2022-12-27T04:51:19.788Z,16.41
2022-12-27T04:51:51.119Z,16.01
2022-12-27T04:52:21.789Z,16.41
2022-12-27T04:52:52.054Z,16.17
2022-12-27T04:53:23.619Z,16.57
2022-12-27T04:53:54.040Z,16.57
2022-12-27T04:54:25.610Z,16.57
2022-12-27T04:54:56.024Z,16.41
2022-12-27T04:55:28.157Z,16.41
2022-12-27T04:55:58.052Z,16.41
2022-12-27T04:56:29.597Z,16.25
2022-12-27T04:57:01.316Z,16.25
2022-12-27T04:57:31.642Z,16.01
2022-12-27T04:58:02.039Z,15.61
2022-12-27T04:58:33.013Z,16.01
2022-12-27T04:59:04.466Z,16.25
2022-12-27T04:59:36.174Z,16.41
2022-12-27T05:00:07.283Z,16.90
2022-12-27T05:00:37.791Z,16.41
2022-12-27T05:01:13.963Z,16.41
2022-12-27T05:01:40.533Z,16.25
2022-12-27T05:02:11.136Z,16.41
2022-12-27T05:02:41.878Z,16.25
2022-12-27T05:03:12.381Z,16.74
2022-12-27T05:03:43.774Z,16.57
2022-12-27T05:04:14.055Z,17.06
2022-12-27T05:04:45.631Z,17.06
2022-12-27T05:05:16.863Z,17.06
2022-12-27T05:05:48.309Z,16.57
2022-12-27T05:06:18.036Z,17.06
2022-12-27T05:06:49.632Z,17.06
2022-12-27T05:07:21.032Z,16.73
2022-12-27T05:07:51.625Z,16.73
2022-12-27T05:08:22.147Z,17.06
2022-12-27T05:08:53.857Z,17.06
2022-12-27T05:09:24.000Z,16.73
2022-12-27T05:09:57.320Z,16.01
2022-12-27T05:10:26.482Z,15.45
2022-12-27T05:10:57.922Z,16.01
2022-12-27T05:11:28.016Z,16.01
2022-12-27T05:11:59.624Z,16.73
2022-12-27T05:12:31.109Z,16.73
2022-12-27T05:13:01.903Z,16.73
2022-12-27T05:13:32.068Z,16.57
2022-12-27T05:14:03.898Z,16.01
2022-12-27T05:14:34.026Z,16.01
2022-12-27T05:15:07.177Z,16.01
2022-12-27T05:15:36.102Z,16.01
2022-12-27T05:16:08.656Z,16.57
2022-12-27T05:16:38.015Z,16.57
2022-12-27T05:17:09.583Z,16.01
2022-12-27T05:17:41.078Z,16.01
2022-12-27T05:18:11.645Z,16.57
2022-12-27T05:18:42.092Z,16.01
2022-12-27T05:19:13.797Z,16.01
2022-12-27T05:19:44.043Z,16.01
2022-12-27T05:20:20.431Z,16.01
2022-12-27T05:20:47.629Z,16.01
2022-12-27T05:21:17.612Z,15.61
2022-12-27T05:21:48.024Z,15.61
2022-12-27T05:22:19.638Z,15.29
2022-12-27T05:22:51.156Z,15.29
2022-12-27T05:23:21.591Z,15.29
2022-12-27T05:23:52.079Z,15.45
2022-12-27T05:24:23.597Z,15.45
2022-12-27T05:24:54.053Z,15.45
2022-12-27T05:25:26.137Z,15.45
2022-12-27T05:25:56.574Z,15.61
2022-12-27T05:26:27.718Z,15.13
2022-12-27T05:26:58.071Z,14.80
2022-12-27T05:27:29.732Z,14.80
2022-12-27T05:28:01.106Z,14.80
2022-12-27T05:28:31.929Z,14.40
2022-12-27T05:29:01.988Z,14.40
2022-12-27T05:29:33.739Z,13.84
2022-12-27T05:30:05.152Z,13.35
2022-12-27T05:30:39.350Z,13.35
2022-12-27T05:31:06.109Z,13.35
2022-12-27T05:31:37.673Z,13.35
2022-12-27T05:32:12.600Z,13.35
2022-12-27T05:32:39.719Z,13.03
2022-12-27T05:33:11.002Z,13.03
2022-12-27T05:33:41.696Z,13.03
2022-12-27T05:34:12.028Z,12.79
2022-12-27T05:34:43.658Z,12.39
2022-12-27T05:35:15.139Z,12.23
2022-12-27T05:35:45.604Z,12.07
2022-12-27T05:36:16.000Z,12.07
2022-12-27T05:36:47.686Z,12.07
2022-12-27T05:37:18.043Z,12.07
2022-12-27T05:37:54.704Z,12.23
2022-12-27T05:38:21.492Z,12.63
2022-12-27T05:38:51.637Z,13.35
2022-12-27T05:39:22.765Z,13.35
2022-12-27T05:39:53.728Z,14.00
2022-12-27T05:40:24.409Z,14.00
2022-12-27T05:40:56.003Z,14.00
2022-12-27T05:41:26.145Z,14.00
2022-12-27T05:41:58.328Z,14.00
2022-12-27T05:42:28.071Z,14.00
2022-12-27T05:42:59.689Z,14.32
2022-12-27T05:43:31.056Z,14.00
2022-12-27T05:44:06.817Z,13.67
2022-12-27T05:44:32.001Z,14.00
2022-12-27T05:45:04.524Z,14.32
2022-12-27T05:45:34.724Z,14.32
2022-12-27T05:46:05.724Z,14.32
2022-12-27T05:46:36.042Z,14.32
2022-12-27T05:47:07.625Z,14.00
2022-12-27T05:47:38.042Z,13.67
2022-12-27T05:48:09.689Z,13.35
2022-12-27T05:48:41.638Z,13.35
2022-12-27T05:49:11.702Z,12.79
2022-12-27T05:49:42.005Z,12.79
2022-12-27T05:50:14.161Z,12.39
2022-12-27T05:50:44.045Z,11.91
2022-12-27T05:51:18.273Z,11.91
2022-12-27T05:51:46.019Z,11.18
2022-12-27T05:52:17.796Z,10.78
2022-12-27T05:52:48.702Z,10.62
2022-12-27T05:53:19.680Z,10.30
2022-12-27T05:53:51.024Z,10.30
2022-12-27T05:54:21.716Z,10.30
2022-12-27T05:54:52.012Z,10.30
2022-12-27T05:55:24.653Z,10.30
2022-12-27T05:55:54.107Z,10.30
2022-12-27T05:56:25.736Z,10.46
2022-12-27T05:56:56.020Z,10.46
2022-12-27T05:57:29.495Z,10.46
2022-12-27T05:57:57.982Z,10.46
2022-12-27T05:58:29.012Z,10.46
2022-12-27T05:59:01.169Z,10.30
2022-12-27T05:59:31.663Z,10.30
2022-12-27T06:00:03.294Z,9.89
2022-12-27T06:00:33.798Z,10.30
2022-12-27T06:01:04.083Z,9.89
2022-12-27T06:01:36.116Z,10.13
2022-12-27T06:02:06.214Z,9.89
2022-12-27T06:02:37.763Z,9.89
2022-12-27T06:03:08.086Z,9.89
2022-12-27T06:03:39.703Z,10.30
2022-12-27T06:04:11.042Z,10.30
2022-12-27T06:04:41.781Z,9.89
2022-12-27T06:05:12.477Z,9.65
2022-12-27T06:05:43.642Z,9.65
2022-12-27T06:06:14.626Z,9.49
2022-12-27T06:06:45.711Z,9.01
2022-12-27T06:07:16.002Z,8.69
2022-12-27T06:07:47.768Z,8.45
2022-12-27T06:08:17.991Z,8.69
2022-12-27T06:08:50.326Z,8.45
2022-12-27T06:09:21.023Z,8.45
2022-12-27T06:09:51.730Z,8.04
2022-12-27T06:10:22.537Z,8.45
2022-12-27T06:10:53.719Z,8.45
2022-12-27T06:11:24.029Z,8.45
2022-12-27T06:12:00.391Z,8.45
2022-12-27T06:12:26.182Z,8.45
2022-12-27T06:12:57.710Z,8.45
2022-12-27T06:13:27.998Z,8.45
2022-12-27T06:13:59.623Z,8.04
2022-12-27T06:14:31.054Z,7.56
2022-12-27T06:15:03.360Z,6.84
2022-12-27T06:15:32.056Z,6.84
2022-12-27T06:16:03.756Z,7.97
2022-12-27T06:16:34.096Z,7.97
2022-12-27T06:17:05.678Z,8.69
2022-12-27T06:17:36.001Z,8.69
2022-12-27T06:18:08.073Z,8.69
2022-12-27T06:18:38.402Z,8.29
2022-12-27T06:19:09.575Z,8.29
2022-12-27T06:19:41.060Z,8.29
2022-12-27T06:20:12.067Z,8.29
2022-12-27T06:20:47.352Z,7.56
2022-12-27T06:21:13.777Z,7.24
2022-12-27T06:21:44.076Z,7.24
2022-12-27T06:22:16.825Z,7.24
2022-12-27T06:22:45.958Z,7.24
2022-12-27T06:23:17.680Z,6.84
2022-12-27T06:23:48.067Z,6.27
2022-12-27T06:24:20.592Z,6.11
2022-12-27T06:24:50.985Z,5.79
2022-12-27T06:25:22.111Z,5.79
2022-12-27T06:25:51.982Z,4.90
2022-12-27T06:26:23.647Z,4.18
2022-12-27T06:26:54.001Z,4.02
2022-12-27T06:27:25.587Z,3.78
2022-12-27T06:27:56.031Z,3.54
2022-12-27T06:28:27.608Z,3.54
2022-12-27T06:28:57.993Z,3.05
2022-12-27T06:29:31.600Z,2.33
2022-12-27T06:30:02.632Z,2.33
2022-12-27T06:30:36.082Z,2.33
2022-12-27T06:31:02.035Z,2.09
2022-12-27T06:31:34.043Z,1.93
2022-12-27T06:32:04.309Z,1.77
2022-12-27T06:32:36.023Z,1.77
2022-12-27T06:33:06.696Z,1.61
2022-12-27T06:33:37.721Z,1.44
2022-12-27T06:34:08.017Z,1.44
2022-12-27T06:34:39.693Z,1.44
2022-12-27T06:35:11.427Z,1.44
2022-12-27T06:35:42.129Z,1.44
2022-12-27T06:36:12.117Z,1.44
2022-12-27T06:36:43.638Z,1.44
2022-12-27T06:37:14.216Z,1.44
2022-12-27T06:37:45.594Z,1.44
2022-12-27T06:38:15.989Z,1.44
2022-12-27T06:38:48.326Z,1.61
2022-12-27T06:39:17.994Z,1.61
2022-12-27T06:39:49.764Z,1.44
2022-12-27T06:40:21.696Z,1.44
2022-12-27T06:40:51.672Z,1.44
2022-12-27T06:41:22.232Z,1.61
2022-12-27T06:41:53.592Z,1.44